Aktualne dane pomiarowe

Uwaga, wersja testowa! Automatyczne pobieranie danych za pomocą narzędzi lub skryptów to umożliwiających jest zabronione.

Dane meteo z obszaru Polski uzyskane na podstawie depesz SYNOP pobieranych co godzinę z NWS. Najedź myszką na symbol przedstawiony w tabeli, aby uzyskać informacje co do jego znaczenia. Prosimy pamiętać, że to testowa wersja strony, która jeszcze nie jest ukończona. Stworzono również jest krótki FAQ dotyczący korzystania z tej podstrony Anomalie temperatury w chwili obecnej odniesione są do okresu referencyjnego 1951-2016. Okres ten będzie później zmieniony na 1981-2010. Kliknij ikonę aby pobrać plik CSV. Kliknij ikonę aby wygenerować mapę synoptyczną dla danego terminu.

Wybierz Datę:    

        

Częstochowa (12550)

Dane terminowe dla wybranej stacji. Kliknij datę, aby otrzymać dane z tego terminu dla wszystkich stacji.

TemperaturaZachmurzenieWiatrCiśnienieOpadyPogoda
 Data t td wb tx tn tg rh  Nt Nl Cl Cm Ch ws wd g1 g2 wx mslp ppp ch 24h 12h t ww ww w1 w2  
2019-07-20 23:00:00 19.8 13.5 15.7--- 6719.0--2wx--21016.2 981.8 0.2---------
2019-07-20 22:00:00 20.5 13.5 16.0--- 6420.0--2wx--21016.1 981.8 0.5---------
2019-07-20 21:00:00 21.7 13.1 16.3--- 5822.0--2wx---1015.7 981.5 0.4---------
2019-07-20 20:00:00 23.1 12.7 16.7--- 5224.0--2wx--21015.6 981.6 0.4---------
2019-07-20 19:00:00 24.2 11.8 16.7--- 4635.0--1wx--11015.2 981.3 0.0---------
2019-07-20 18:00:00 25.9 11.6 17.3 28.4 18.0- 4130.0--1wx--11014.8 981.1 -0.4- 0.012------
2019-07-20 17:00:00 27.2 10.8 17.4--- 3640.0--1wx--11014.7 981.2 -0.5---------
2019-07-20 16:00:00 27.6 10.3 17.4--- 3435.0--1wx--11014.8 981.3 -0.5---------
2019-07-20 15:00:00 27.5 11.5 17.9--- 3735.0--1wx---1015.0 981.5 -0.6---------
2019-07-20 14:00:00 27.5 10.7 17.5--- 3530.0--1wx--11015.2 981.7 -0.8---------
2019-07-20 13:00:00 28.4 11.5 18.2--- 3530.0--2wx--21015.2 981.8 -0.7---------
2019-07-20 12:00:00 27.4 11.4 17.8--- 3735.0--2wx--21015.6 982.1 -0.6- 0.06------
2019-07-20 11:00:00 25.5 11.6 17.1--- 4240.0--2wx--21016.3 982.5 -0.3---------
2019-07-20 10:00:00 26.0 12.4 17.7--- 4330.0--2wx--21016.2 982.5 -0.2---------
2019-07-20 09:00:00 24.5 13.4 17.6--- 5023.0--2wx--21016.6 982.7 0.3---------
2019-07-20 08:00:00 22.6 15.2 17.8--- 6321.0--1wx--11016.9 982.8 0.6---------
2019-07-20 07:00:00 20.9 14.5 16.7--- 6720.0--1wx--11017.0 982.7 0.6---------
2019-07-20 06:00:00 18.0 15.3 16.1 21.4 15.7 15 8410.0--1wx--11017.1 982.4 0.4 0.2 0.112wx---- 5.7
2019-07-20 05:00:00 16.5 14.7 15.2--- 898.0--1wx---1017.0 982.2 0.4---wx-----
2019-07-20 04:00:00 15.9 14.1 14.6--- 899.0--2wx--21017.0 982.1 0.5---wx-----
2019-07-20 03:00:00 15.8 14.2 14.7--- 908.0--1wx--11016.9 982.0 0.4---wx-----
2019-07-20 02:00:00 16.2 14.4 14.9--- 8910.0--1wx--11016.7 981.8 0.4---------
2019-07-20 01:00:00 16.7 14.3 15.0--- 8613.0--1wx--11016.4 981.6 0.1---------
2019-07-20 00:00:00 17.3 14.4 15.3--- 8314.0--2wx--21016.3 981.6 0.3- 0.16------
2019-07-19 23:00:00 17.8 14.3 15.4--- 8016.0--1wx---1016.0 981.4 0.2---wx-----
2019-07-19 22:00:00 18.2 14.3 15.6--- 7819.0--1wx--11016.1 981.5 0.7---wx-----
2019-07-19 21:00:00 19.0 13.2 15.2--- 6929.0--2wx--21015.8 981.3 0.7---wx-----
2019-07-19 20:00:00 19.7 13.4 15.6--- 6730.0--2wx--21015.6 981.2 0.5---------
2019-07-19 19:00:00 20.8 14.2 16.5--- 6628.0--2wx--21015.1 980.8 -0.1---------
2019-07-19 18:00:00 21.4 13.6 16.4 26.4 18.3- 6130.0--1wx-811014.8 980.6 -0.1- 0.112------
2019-07-19 17:00:00 22.1 12.6 16.2--- 5530.0--1wx--11014.8 980.7 0.4---------
2019-07-19 16:00:00 22.0 12.8 16.3--- 5630.0--1wx--11015.0 980.9 0.8---wx-----
2019-07-19 15:00:00 22.4 12.1 16.1--- 5235.0--2wx-821014.8 980.7 0.9---------
2019-07-19 14:00:00 23.7 11.7 16.4--- 4730.0--3wx--31014.2 980.3 0.3---------
2019-07-19 13:00:00 21.9 11.0 15.3--- 5045.0--2wx-821014.2 980.1 0.0---wx-----
2019-07-19 12:00:00 25.0 8.9 15.7--- 3635.0--1wx--11013.5 979.8 -0.2- 0.16wx-----
2019-07-19 11:00:00 25.6 8.1 15.6--- 3340.0--1wx--11013.7 980.0 -0.1---------
2019-07-19 10:00:00 25.1 9.0 15.8--- 3635.0--1wx--11013.8 980.1 -0.1---------
2019-07-19 09:00:00 25.4 8.8 15.8--- 3535.0--2wx--21013.7 980.0 -0.2---------
2019-07-19 08:00:00 24.4 9.5 15.7--- 3929.0--3wx--31013.9 980.1 0.0---------
2019-07-19 07:00:00 22.3 10.8 15.4--- 4824.0--2wx--21014.3 980.2 0.2---------
2019-07-19 06:00:00 18.3 10.4 13.5 22.4 12.9 11 6019.0--2wx--21014.7 980.2 0.3- 0.012----- 10.8
2019-07-19 05:00:00 14.3 9.3 11.2--- 7219.0--2wx--21015.1 980.1 0.3---------
2019-07-19 04:00:00 13.3 8.6 10.4--- 7318.0--2wx--21015.1 980.0 0.2---------
2019-07-19 03:00:00 13.2 8.3 10.2--- 7216.0--2wx--21015.1 979.9 0.1---------
2019-07-19 02:00:00 13.4 8.0 10.1--- 7024.0--2wx--21014.9 979.8 0.1---------
2019-07-19 01:00:00 13.5 8.1 10.2--- 7021.0--1wx--11014.9 979.8 0.4---------
2019-07-19 00:00:00 13.9 8.1 10.4--- 6822.0--1wx--11014.9 979.8 0.5- 0.06------
1.5 ms

 

Print Friendly, PDF & Email